| time (UTC) | temp C | wind direction | speed KPH | gust KPH | rain 1hr cm | rain 24hr cm | rain mn cm | humidity % | barometer mb |
| 20260504214010 | 17 | 308 | 0.0 | 11.3 | 0.00 | 0.00 | 0.00 | 46 | 1004.1 |
| 20260504213539 | 18 | 110 | 11.3 | 11.3 | 0.00 | 0.00 | 0.00 | 46 | 1004.1 |
| 20260504213010 | 18 | 210 | 0.0 | 0.0 | 0.00 | 0.00 | 0.00 | 46 | 1004.1 |
| 20260504212009 | 18 | 96 | 0.0 | 0.0 | 0.00 | 0.00 | 0.00 | 46 | 1004.1 |
| 20260504211510 | 18 | 194 | 0.0 | 0.0 | 0.00 | 0.00 | 0.00 | 45 | 1004.1 |
| 20260504211041 | 18 | 140 | 0.0 | 0.0 | 0.00 | 0.00 | 0.00 | 45 | 1004.1 |
| 20260504210538 | 18 | 65 | 0.0 | 8.0 | 0.00 | 0.00 | 0.00 | 45 | 1004.1 |
| 20260504210038 | 19 | 141 | 8.0 | 16.1 | 0.00 | 0.00 | 0.00 | 45 | 1004.1 |
| 20260504205508 | 19 | 160 | 16.1 | 16.1 | 0.00 | 0.00 | 0.00 | 45 | 1004.1 |
| 20260504205008 | 19 | 174 | 8.0 | 9.7 | 0.00 | 0.00 | 0.00 | 45 | 1004.1 |
| 20260504204008 | 20 | 123 | 8.0 | 8.0 | 0.00 | 0.00 | 0.00 | 45 | 1004.1 |
| 20260504203508 | 20 | 37 | 8.0 | 11.3 | 0.00 | 0.00 | 0.00 | 45 | 1004.1 |
| 20260504203038 | 20 | 74 | 11.3 | 11.3 | 0.00 | 0.00 | 0.00 | 43 | 1004.1 |
| 20260504202539 | 20 | 81 | 8.0 | 8.0 | 0.00 | 0.00 | 0.00 | 43 | 1004.1 |
| 20260504202007 | 20 | 153 | 0.0 | 8.0 | 0.00 | 0.00 | 0.00 | 43 | 1004.1 |
| 20260504201537 | 20 | 155 | 8.0 | 9.7 | 0.00 | 0.00 | 0.00 | 43 | 1004.1 |
| 20260504201039 | 20 | 131 | 9.7 | 9.7 | 0.00 | 0.00 | 0.00 | 43 | 1004.1 |
| 20260504200537 | 20 | 81 | 0.0 | 0.0 | 0.00 | 0.00 | 0.00 | 43 | 1004.1 |
| 20260504200037 | 20 | 123 | 0.0 | 8.0 | 0.00 | 0.00 | 0.00 | 42 | 1004.1 |
| 20260504195506 | 20 | 167 | 8.0 | 12.9 | 0.00 | 0.00 | 0.00 | 43 | 1004.1 |
| 20260504195036 | 20 | 119 | 12.9 | 16.1 | 0.00 | 0.00 | 0.00 | 42 | 1004.1 |
| 20260504194506 | 21 | 350 | 16.1 | 16.1 | 0.00 | 0.00 | 0.00 | 42 | 1004.1 |
| 20260504194039 | 21 | 182 | 0.0 | 0.0 | 0.00 | 0.00 | 0.00 | 42 | 1004.1 |
| 20260504193536 | 21 | 171 | 0.0 | 0.0 | 0.00 | 0.00 | 0.00 | 42 | 1004.1 |
| 20260504193006 | 21 | 176 | 0.0 | 12.9 | 0.00 | 0.00 | 0.00 | 41 | 1004.1 |
| 20260504192537 | 21 | 168 | 12.9 | 12.9 | 0.00 | 0.00 | 0.00 | 41 | 1004.1 |
| 20260504192036 | 21 | 124 | 8.0 | 8.0 | 0.00 | 0.00 | 0.00 | 41 | 1004.1 |
| 20260504191536 | 21 | 243 | 0.0 | 8.0 | 0.00 | 0.00 | 0.00 | 41 | 1004.1 |
| 20260504191038 | 21 | 105 | 8.0 | 11.3 | 0.00 | 0.00 | 0.00 | 40 | 1004.1 |
| 20260504190534 | 21 | 307 | 11.3 | 11.3 | 0.00 | 0.00 | 0.00 | 40 | 1004.1 |
| 20260504190035 | 21 | 205 | 11.3 | 11.3 | 0.00 | 0.00 | 0.00 | 40 | 1004.1 |
| 20260504185536 | 21 | 161 | 11.3 | 12.9 | 0.00 | 0.00 | 0.00 | 40 | 1005.1 |
| 20260504185035 | 22 | 274 | 12.9 | 12.9 | 0.00 | 0.00 | 0.00 | 39 | 1005.1 |
| 20260504184534 | 22 | 17 | 8.0 | 20.9 | 0.00 | 0.00 | 0.00 | 39 | 1005.1 |
| 20260504184036 | 22 | 48 | 20.9 | 20.9 | 0.00 | 0.00 | 0.00 | 40 | 1005.1 |
| 20260504183034 | 22 | 170 | 0.0 | 12.9 | 0.00 | 0.00 | 0.00 | 39 | 1005.1 |
| 20260504182536 | 22 | 247 | 12.9 | 12.9 | 0.00 | 0.00 | 0.00 | 39 | 1005.1 |
| 20260504182033 | 22 | 258 | 8.0 | 8.0 | 0.00 | 0.00 | 0.00 | 39 | 1005.1 |
| 20260504181533 | 22 | 115 | 0.0 | 0.0 | 0.00 | 0.00 | 0.00 | 39 | 1005.1 |
| 20260504181035 | 22 | 255 | 0.0 | 16.1 | 0.00 | 0.00 | 0.00 | 39 | 1005.1 |
| 20260504180533 | 22 | 145 | 16.1 | 16.1 | 0.00 | 0.00 | 0.00 | 39 | 1005.1 |
| 20260504180033 | 22 | 131 | 11.3 | 11.3 | 0.00 | 0.00 | 0.00 | 37 | 1005.1 |
| 20260504175032 | 22 | 265 | 9.7 | 17.7 | 0.00 | 0.00 | 0.00 | 37 | 1005.1 |
| 20260504174532 | 22 | 101 | 17.7 | 17.7 | 0.00 | 0.00 | 0.00 | 37 | 1005.1 |
| 20260504174034 | 22 | 348 | 8.0 | 9.7 | 0.00 | 0.00 | 0.00 | 39 | 1005.1 |
| 20260504173533 | 22 | 183 | 9.7 | 12.9 | 0.00 | 0.00 | 0.00 | 39 | 1005.1 |
| 20260504173032 | 22 | 152 | 12.9 | 12.9 | 0.00 | 0.00 | 0.00 | 40 | 1005.1 |
| 20260504172534 | 22 | 52 | 8.0 | 8.0 | 0.00 | 0.00 | 0.00 | 40 | 1005.1 |
| 20260504171532 | 22 | 218 | 0.0 | 0.0 | 0.00 | 0.00 | 0.00 | 40 | 1005.1 |
| 20260504171033 | 22 | 14 | 0.0 | 8.0 | 0.00 | 0.00 | 0.00 | 41 | 1005.1 |
| 20260504170532 | 22 | 309 | 8.0 | 9.7 | 0.00 | 0.00 | 0.00 | 40 | 1005.1 |
| 20260504151029 | 19 | 353 | 0.0 | 11.3 | 0.00 | 0.00 | 0.00 | 46 | 1007.1 |
| 20260504150527 | 19 | 63 | 11.3 | 11.3 | 0.00 | 0.00 | 0.00 | 46 | 1007.1 |
| 20260504141024 | 18 | 29 | 0.0 | 9.7 | 0.00 | 0.00 | 0.00 | 48 | 1007.1 |
| 20260504140524 | 18 | 119 | 9.7 | 19.3 | 0.00 | 0.00 | 0.00 | 48 | 1007.1 |
| 20260504130523 | 21 | 128 | 8.0 | 8.0 | 0.00 | 0.00 | 0.00 | 57 | 1007.1 |
| 20260504100516 | 4 | 300 | 0.0 | 0.0 | 0.00 | 0.00 | 0.00 | 71 | 1007.1 |
| 20260504081513 | 3 | 300 | 0.0 | 0.0 | 0.00 | 0.00 | 0.00 | 69 | 1007.1 |
| 20260504081013 | 3 | 300 | 0.0 | 0.0 | 0.00 | 0.00 | 0.00 | 69 | 1007.1 |
| 20260504045507 | 5 | 300 | 0.0 | 0.0 | 0.00 | 0.00 | 0.00 | 64 | 1006.1 |
| 20260504045008 | 5 | 300 | 0.0 | 0.0 | 0.00 | 0.00 | 0.00 | 63 | 1006.1 |
| 20260504044538 | 5 | 300 | 0.0 | 0.0 | 0.00 | 0.00 | 0.00 | 63 | 1006.1 |
| 20260504044038 | 5 | 300 | 0.0 | 0.0 | 0.00 | 0.00 | 0.00 | 63 | 1006.1 |
| 20260504043036 | 5 | 300 | 0.0 | 0.0 | 0.00 | 0.00 | 0.00 | 63 | 1006.1 |
| 20260504042536 | 5 | 300 | 0.0 | 0.0 | 0.00 | 0.00 | 0.00 | 63 | 1006.1 |
| 20260504042006 | 5 | 300 | 0.0 | 0.0 | 0.00 | 0.00 | 0.00 | 61 | 1006.1 |
| 20260504041036 | 5 | 300 | 0.0 | 0.0 | 0.00 | 0.00 | 0.00 | 61 | 1006.1 |
| 20260504040536 | 5 | 300 | 0.0 | 0.0 | 0.00 | 0.00 | 0.00 | 60 | 1006.1 |
| 20260504040035 | 5 | 300 | 0.0 | 0.0 | 0.00 | 0.00 | 0.00 | 60 | 1006.1 |
| 20260504035006 | 5 | 300 | 0.0 | 0.0 | 0.00 | 0.00 | 0.00 | 60 | 1006.1 |
| 20260504034535 | 5 | 300 | 0.0 | 0.0 | 0.00 | 0.00 | 0.00 | 59 | 1006.1 |
| 20260504034035 | 5 | 300 | 0.0 | 0.0 | 0.00 | 0.00 | 0.00 | 59 | 1006.1 |
| 20260504033504 | 6 | 300 | 0.0 | 0.0 | 0.00 | 0.00 | 0.00 | 59 | 1006.1 |
| 20260504033035 | 6 | 300 | 0.0 | 0.0 | 0.00 | 0.00 | 0.00 | 58 | 1006.1 |
| 20260504032534 | 6 | 300 | 0.0 | 0.0 | 0.00 | 0.00 | 0.00 | 58 | 1006.1 |
| 20260504032034 | 6 | 300 | 0.0 | 0.0 | 0.00 | 0.00 | 0.00 | 57 | 1006.1 |
| 20260504031534 | 6 | 300 | 0.0 | 0.0 | 0.00 | 0.00 | 0.00 | 57 | 1006.1 |
| 20260504031034 | 6 | 300 | 0.0 | 0.0 | 0.00 | 0.00 | 0.00 | 57 | 1006.1 |
| 20260504030535 | 6 | 300 | 0.0 | 0.0 | 0.00 | 0.00 | 0.00 | 57 | 1006.1 |
| 20260504030034 | 6 | 300 | 0.0 | 0.0 | 0.00 | 0.00 | 0.00 | 55 | 1006.1 |
| 20260504024533 | 6 | 300 | 0.0 | 0.0 | 0.00 | 0.00 | 0.00 | 55 | 1006.1 |
| 20260504023536 | 6 | 300 | 0.0 | 0.0 | 0.00 | 0.00 | 0.00 | 54 | 1006.1 |
| 20260504023034 | 7 | 300 | 0.0 | 0.0 | 0.00 | 0.00 | 0.00 | 54 | 1006.1 |
| 20260504022532 | 7 | 300 | 0.0 | 0.0 | 0.00 | 0.00 | 0.00 | 53 | 1006.1 |
| 20260504022034 | 7 | 300 | 0.0 | 0.0 | 0.00 | 0.00 | 0.00 | 53 | 1006.1 |
| 20260504021532 | 7 | 300 | 0.0 | 0.0 | 0.00 | 0.00 | 0.00 | 53 | 1006.1 |
| 20260504021032 | 7 | 300 | 0.0 | 0.0 | 0.00 | 0.00 | 0.00 | 53 | 1006.1 |
| 20260504020532 | 7 | 300 | 0.0 | 0.0 | 0.00 | 0.00 | 0.00 | 53 | 1006.1 |
| 20260504015533 | 7 | 300 | 0.0 | 0.0 | 0.00 | 0.00 | 0.00 | 52 | 1006.1 |
| 20260504015031 | 7 | 300 | 0.0 | 0.0 | 0.00 | 0.00 | 0.00 | 52 | 1006.1 |
| 20260504014031 | 8 | 300 | 0.0 | 0.0 | 0.00 | 0.00 | 0.00 | 51 | 1005.1 |
| 20260504013532 | 8 | 300 | 0.0 | 0.0 | 0.00 | 0.00 | 0.00 | 51 | 1005.1 |
| 20260504013031 | 8 | 300 | 0.0 | 0.0 | 0.00 | 0.00 | 0.00 | 51 | 1005.1 |
| 20260504012532 | 8 | 300 | 0.0 | 0.0 | 0.00 | 0.00 | 0.00 | 51 | 1005.1 |
| 20260504012032 | 8 | 300 | 0.0 | 0.0 | 0.00 | 0.00 | 0.00 | 51 | 1005.1 |
| 20260504011531 | 8 | 300 | 0.0 | 0.0 | 0.00 | 0.00 | 0.00 | 51 | 1005.1 |
| 20260504011031 | 8 | 300 | 0.0 | 0.0 | 0.00 | 0.00 | 0.00 | 51 | 1005.1 |
| 20260504010532 | 8 | 300 | 0.0 | 0.0 | 0.00 | 0.00 | 0.00 | 51 | 1005.1 |
| 20260504010030 | 8 | 300 | 0.0 | 0.0 | 0.00 | 0.00 | 0.00 | 49 | 1005.1 |
| 20260504005530 | 9 | 300 | 0.0 | 0.0 | 0.00 | 0.00 | 0.00 | 49 | 1005.1 |
| 20260504004029 | 9 | 300 | 0.0 | 0.0 | 0.00 | 0.00 | 0.00 | 49 | 1005.1 |
| 20260504003030 | 10 | 300 | 0.0 | 0.0 | 0.00 | 0.00 | 0.00 | 49 | 1005.1 |
| 20260504002529 | 10 | 300 | 0.0 | 0.0 | 0.00 | 0.00 | 0.00 | 49 | 1004.1 |
| 20260504002029 | 10 | 300 | 0.0 | 0.0 | 0.00 | 0.00 | 0.00 | 48 | 1004.1 |
| 20260504001528 | 10 | 300 | 0.0 | 0.0 | 0.00 | 0.00 | 0.00 | 48 | 1004.1 |
| 20260504001028 | 10 | 300 | 0.0 | 0.0 | 0.00 | 0.00 | 0.00 | 48 | 1004.1 |
| 20260504000528 | 10 | 300 | 0.0 | 0.0 | 0.00 | 0.00 | 0.00 | 48 | 1004.1 |
| 20260504000029 | 10 | 300 | 0.0 | 0.0 | 0.00 | 0.00 | 0.00 | 48 | 1004.1 |
| 20260503235528 | 10 | 300 | 0.0 | 0.0 | 0.00 | 0.00 | 0.00 | 48 | 1004.1 |
| 20260503235028 | 10 | 300 | 0.0 | 0.0 | 0.00 | 0.00 | 0.00 | 47 | 1004.1 |
| 20260503234528 | 11 | 300 | 0.0 | 0.0 | 0.00 | 0.00 | 0.00 | 46 | 1004.1 |
| 20260503234029 | 11 | 300 | 0.0 | 0.0 | 0.00 | 0.00 | 0.00 | 45 | 1004.1 |
| 20260503233529 | 11 | 300 | 0.0 | 0.0 | 0.00 | 0.00 | 0.00 | 45 | 1004.1 |
| 20260503231526 | 11 | 300 | 0.0 | 0.0 | 0.00 | 0.00 | 0.00 | 42 | 1004.1 |
| 20260503231027 | 12 | 300 | 0.0 | 0.0 | 0.00 | 0.00 | 0.00 | 41 | 1004.1 |
| 20260503230528 | 12 | 302 | 0.0 | 0.0 | 0.00 | 0.00 | 0.00 | 41 | 1004.1 |
| 20260503230026 | 12 | 278 | 0.0 | 12.9 | 0.00 | 0.00 | 0.00 | 41 | 1004.1 |
| 20260503225526 | 12 | 286 | 12.9 | 12.9 | 0.00 | 0.00 | 0.00 | 41 | 1004.1 |
| 20260503224527 | 12 | 333 | 0.0 | 0.0 | 0.00 | 0.00 | 0.00 | 41 | 1004.1 |
| 20260503224025 | 12 | 344 | 0.0 | 9.7 | 0.00 | 0.00 | 0.00 | 41 | 1004.1 |
| 20260503223528 | 12 | 269 | 9.7 | 9.7 | 0.00 | 0.00 | 0.00 | 41 | 1004.1 |
| 20260503223025 | 12 | 279 | 8.0 | 8.0 | 0.00 | 0.00 | 0.00 | 41 | 1004.1 |
| 20260503222525 | 12 | 3 | 0.0 | 0.0 | 0.00 | 0.00 | 0.00 | 40 | 1004.1 |
| 20260503221525 | 13 | 21 | 0.0 | 0.0 | 0.00 | 0.00 | 0.00 | 40 | 1004.1 |
| 20260503221025 | 13 | 322 | 0.0 | 0.0 | 0.00 | 0.00 | 0.00 | 40 | 1004.1 |
| 20260503220525 | 13 | 301 | 0.0 | 12.9 | 0.00 | 0.00 | 0.00 | 40 | 1004.1 |
| 20260503215522 | 13 | 12 | 0.0 | 16.1 | 0.00 | 0.00 | 0.00 | 39 | 1003.1 |
| 20260503215025 | 13 | 284 | 16.1 | 16.1 | 0.00 | 0.00 | 0.00 | 40 | 1003.1 |
| 20260503214522 | 13 | 290 | 12.9 | 12.9 | 0.00 | 0.00 | 0.00 | 40 | 1003.1 |